sensor_id;sensor_type;location;lat;lon;timestamp;pressure;altitude;pressure_sealevel;temperature;humidity
71504;BME280;59323;50.874;7.028;2023-12-14T00:01:02;100215.56;;;7.11;100.00
71504;BME280;59323;50.874;7.028;2023-12-14T00:03:53;100218.97;;;7.08;100.00
71504;BME280;59323;50.874;7.028;2023-12-14T00:06:35;100220.88;;;7.08;100.00
71504;BME280;59323;50.874;7.028;2023-12-14T00:09:49;100232.66;;;7.15;100.00
71504;BME280;59323;50.874;7.028;2023-12-14T00:12:55;100240.41;;;7.17;100.00
71504;BME280;59323;50.874;7.028;2023-12-14T00:15:30;100226.72;;;7.10;100.00
71504;BME280;59323;50.874;7.028;2023-12-14T00:21:42;100237.94;;;7.12;100.00
71504;BME280;59323;50.874;7.028;2023-12-14T00:25:05;100239.50;;;7.13;100.00
71504;BME280;59323;50.874;7.028;2023-12-14T00:27:36;100237.16;;;7.11;100.00
71504;BME280;59323;50.874;7.028;2023-12-14T00:30:37;100265.22;;;7.22;100.00
71504;BME280;59323;50.874;7.028;2023-12-14T00:34:00;100269.94;;;7.25;100.00
71504;BME280;59323;50.874;7.028;2023-12-14T00:36:59;100264.78;;;7.20;100.00
71504;BME280;59323;50.874;7.028;2023-12-14T00:40:19;100260.88;;;7.18;100.00
71504;BME280;59323;50.874;7.028;2023-12-14T00:43:26;100270.78;;;7.29;100.00
71504;BME280;59323;50.874;7.028;2023-12-14T00:46:18;100284.38;;;7.33;100.00
71504;BME280;59323;50.874;7.028;2023-12-14T00:49:14;100269.00;;;7.18;100.00
71504;BME280;59323;50.874;7.028;2023-12-14T00:55:49;100273.59;;;7.17;100.00
71504;BME280;59323;50.874;7.028;2023-12-14T00:58:20;100283.63;;;7.17;100.00
71504;BME280;59323;50.874;7.028;2023-12-14T01:01:22;100306.44;;;7.35;100.00
71504;BME280;59323;50.874;7.028;2023-12-14T01:07:34;100313.16;;;7.25;100.00
71504;BME280;59323;50.874;7.028;2023-12-14T01:20:05;100340.78;;;7.35;100.00
71504;BME280;59323;50.874;7.028;2023-12-14T01:23:05;100335.72;;;7.33;100.00
71504;BME280;59323;50.874;7.028;2023-12-14T01:43:59;100371.06;;;7.24;100.00
71504;BME280;59323;50.874;7.028;2023-12-14T01:55:01;100406.59;;;7.42;100.00
71504;BME280;59323;50.874;7.028;2023-12-14T02:17:44;100432.59;;;7.31;100.00
71504;BME280;59323;50.874;7.028;2023-12-14T02:24:59;100465.72;;;7.44;100.00
71504;BME280;59323;50.874;7.028;2023-12-14T03:36:18;100562.78;;;7.49;100.00
71504;BME280;59323;50.874;7.028;2023-12-14T03:40:04;100551.50;;;7.31;100.00
71504;BME280;59323;50.874;7.028;2023-12-14T03:42:59;100559.19;;;7.29;100.00
71504;BME280;59323;50.874;7.028;2023-12-14T03:53:05;100578.59;;;7.19;100.00
71504;BME280;59323;50.874;7.028;2023-12-14T03:56:40;100609.06;;;7.31;100.00
71504;BME280;59323;50.874;7.028;2023-12-14T03:59:53;100613.69;;;7.31;100.00
71504;BME280;59323;50.874;7.028;2023-12-14T04:06:31;100631.63;;;7.23;100.00
71504;BME280;59323;50.874;7.028;2023-12-14T04:09:28;100637.81;;;7.24;100.00
71504;BME280;59323;50.874;7.028;2023-12-14T04:12:41;100633.34;;;7.16;100.00
71504;BME280;59323;50.874;7.028;2023-12-14T04:15:34;100640.19;;;7.13;100.00
71504;BME280;59323;50.874;7.028;2023-12-14T04:18:59;100635.59;;;7.02;100.00
71504;BME280;59323;50.874;7.028;2023-12-14T04:21:53;100638.75;;;7.04;100.00
71504;BME280;59323;50.874;7.028;2023-12-14T04:25:13;100638.53;;;6.96;100.00
71504;BME280;59323;50.874;7.028;2023-12-14T04:30:49;100657.34;;;6.93;100.00
71504;BME280;59323;50.874;7.028;2023-12-14T04:33:23;100682.31;;;7.02;100.00
71504;BME280;59323;50.874;7.028;2023-12-14T04:36:08;100683.34;;;6.97;100.00
71504;BME280;59323;50.874;7.028;2023-12-14T04:38:46;100679.88;;;6.85;100.00
71504;BME280;59323;50.874;7.028;2023-12-14T04:41:31;100697.19;;;6.96;100.00
71504;BME280;59323;50.874;7.028;2023-12-14T04:44:37;100687.63;;;6.86;100.00
71504;BME280;59323;50.874;7.028;2023-12-14T04:47:48;100684.25;;;6.89;100.00
71504;BME280;59323;50.874;7.028;2023-12-14T04:51:18;100687.88;;;6.81;100.00
71504;BME280;59323;50.874;7.028;2023-12-14T04:57:15;100710.25;;;6.94;100.00
71504;BME280;59323;50.874;7.028;2023-12-14T05:00:04;100724.00;;;6.89;100.00
71504;BME280;59323;50.874;7.028;2023-12-14T05:06:49;100736.03;;;6.79;100.00
71504;BME280;59323;50.874;7.028;2023-12-14T05:17:50;100744.13;;;6.67;100.00
71504;BME280;59323;50.874;7.028;2023-12-14T05:21:33;100755.84;;;6.71;100.00
71504;BME280;59323;50.874;7.028;2023-12-14T05:25:01;100754.16;;;6.66;100.00
71504;BME280;59323;50.874;7.028;2023-12-14T05:31:38;100763.50;;;6.69;100.00
71504;BME280;59323;50.874;7.028;2023-12-14T05:34:49;100778.91;;;6.68;100.00
71504;BME280;59323;50.874;7.028;2023-12-14T05:49:09;100781.34;;;6.49;100.00
71504;BME280;59323;50.874;7.028;2023-12-14T06:04:53;100816.97;;;6.43;100.00
71504;BME280;59323;50.874;7.028;2023-12-14T06:12:18;100826.41;;;6.36;100.00
71504;BME280;59323;50.874;7.028;2023-12-14T06:33:48;100884.66;;;6.38;100.00
71504;BME280;59323;50.874;7.028;2023-12-14T06:43:33;100922.78;;;6.36;100.00
71504;BME280;59323;50.874;7.028;2023-12-14T06:49:48;100909.31;;;6.15;100.00
71504;BME280;59323;50.874;7.028;2023-12-14T06:52:18;100938.25;;;6.27;100.00
71504;BME280;59323;50.874;7.028;2023-12-14T06:54:53;100943.84;;;6.22;100.00
71504;BME280;59323;50.874;7.028;2023-12-14T06:57:24;100945.28;;;6.19;100.00
71504;BME280;59323;50.874;7.028;2023-12-14T06:59:50;100948.47;;;6.21;100.00
71504;BME280;59323;50.874;7.028;2023-12-14T07:02:20;100944.63;;;6.22;100.00
71504;BME280;59323;50.874;7.028;2023-12-14T07:04:55;100952.16;;;6.17;100.00
71504;BME280;59323;50.874;7.028;2023-12-14T07:07:31;100955.16;;;6.15;100.00
71504;BME280;59323;50.874;7.028;2023-12-14T07:10:03;100972.94;;;6.16;100.00
71504;BME280;59323;50.874;7.028;2023-12-14T07:12:32;100978.19;;;6.13;100.00
71504;BME280;59323;50.874;7.028;2023-12-14T07:14:57;100982.16;;;6.15;100.00
71504;BME280;59323;50.874;7.028;2023-12-14T07:17:23;100986.88;;;6.18;100.00
71504;BME280;59323;50.874;7.028;2023-12-14T07:22:58;100999.78;;;6.13;100.00
71504;BME280;59323;50.874;7.028;2023-12-14T07:25:24;100997.53;;;6.15;100.00
71504;BME280;59323;50.874;7.028;2023-12-14T07:27:49;101017.50;;;6.22;100.00
71504;BME280;59323;50.874;7.028;2023-12-14T07:30:14;101000.44;;;6.10;100.00
71504;BME280;59323;50.874;7.028;2023-12-14T07:32:40;101017.88;;;6.12;100.00
71504;BME280;59323;50.874;7.028;2023-12-14T07:35:17;101019.19;;;6.06;100.00
71504;BME280;59323;50.874;7.028;2023-12-14T07:37:49;101013.06;;;5.97;100.00
71504;BME280;59323;50.874;7.028;2023-12-14T07:40:21;101011.47;;;5.96;100.00
71504;BME280;59323;50.874;7.028;2023-12-14T07:42:46;101033.94;;;6.09;100.00
71504;BME280;59323;50.874;7.028;2023-12-14T07:45:33;101049.13;;;6.13;100.00
71504;BME280;59323;50.874;7.028;2023-12-14T07:47:58;101036.16;;;6.07;100.00
71504;BME280;59323;50.874;7.028;2023-12-14T07:50:28;101050.13;;;6.09;100.00
71504;BME280;59323;50.874;7.028;2023-12-14T07:53:17;101057.88;;;6.10;100.00
71504;BME280;59323;50.874;7.028;2023-12-14T07:55:48;101063.75;;;6.12;100.00
71504;BME280;59323;50.874;7.028;2023-12-14T07:58:14;101077.09;;;6.09;100.00
71504;BME280;59323;50.874;7.028;2023-12-14T08:00:42;101069.19;;;6.03;100.00
71504;BME280;59323;50.874;7.028;2023-12-14T08:03:08;101074.94;;;5.93;100.00
71504;BME280;59323;50.874;7.028;2023-12-14T08:05:36;101093.97;;;5.97;100.00
71504;BME280;59323;50.874;7.028;2023-12-14T08:08:02;101092.88;;;5.89;100.00
71504;BME280;59323;50.874;7.028;2023-12-14T08:10:31;101107.00;;;5.95;100.00
71504;BME280;59323;50.874;7.028;2023-12-14T08:12:59;101102.53;;;5.82;100.00
71504;BME280;59323;50.874;7.028;2023-12-14T08:15:27;101105.25;;;5.82;100.00
71504;BME280;59323;50.874;7.028;2023-12-14T08:18:02;101119.03;;;5.89;100.00
71504;BME280;59323;50.874;7.028;2023-12-14T08:20:28;101104.94;;;5.74;100.00
71504;BME280;59323;50.874;7.028;2023-12-14T08:23:08;101121.91;;;5.75;100.00
71504;BME280;59323;50.874;7.028;2023-12-14T08:28:39;101131.13;;;5.74;100.00
71504;BME280;59323;50.874;7.028;2023-12-14T08:31:13;101123.84;;;5.66;100.00
71504;BME280;59323;50.874;7.028;2023-12-14T08:33:44;101135.88;;;5.77;100.00
71504;BME280;59323;50.874;7.028;2023-12-14T08:36:10;101145.38;;;5.74;100.00
71504;BME280;59323;50.874;7.028;2023-12-14T08:38:35;101144.28;;;5.76;100.00
71504;BME280;59323;50.874;7.028;2023-12-14T08:41:01;101136.03;;;5.72;100.00
71504;BME280;59323;50.874;7.028;2023-12-14T08:43:34;101156.97;;;5.75;100.00
71504;BME280;59323;50.874;7.028;2023-12-14T08:46:18;101156.19;;;5.74;100.00
71504;BME280;59323;50.874;7.028;2023-12-14T08:48:44;101145.09;;;5.67;100.00
71504;BME280;59323;50.874;7.028;2023-12-14T08:51:09;101174.56;;;5.72;100.00
71504;BME280;59323;50.874;7.028;2023-12-14T08:53:34;101175.38;;;5.73;100.00
71504;BME280;59323;50.874;7.028;2023-12-14T08:56:05;101174.28;;;5.65;100.00
71504;BME280;59323;50.874;7.028;2023-12-14T08:58:52;101187.41;;;5.76;100.00
71504;BME280;59323;50.874;7.028;2023-12-14T09:01:38;101192.81;;;5.67;100.00
71504;BME280;59323;50.874;7.028;2023-12-14T09:04:04;101205.03;;;5.73;100.00
71504;BME280;59323;50.874;7.028;2023-12-14T09:06:37;101207.88;;;5.77;100.00
71504;BME280;59323;50.874;7.028;2023-12-14T09:09:20;101207.25;;;5.71;100.00
71504;BME280;59323;50.874;7.028;2023-12-14T09:11:45;101216.28;;;5.66;100.00
71504;BME280;59323;50.874;7.028;2023-12-14T09:14:28;101222.47;;;5.67;100.00
71504;BME280;59323;50.874;7.028;2023-12-14T09:17:10;101232.63;;;5.70;100.00
71504;BME280;59323;50.874;7.028;2023-12-14T09:19:35;101234.06;;;5.67;100.00
71504;BME280;59323;50.874;7.028;2023-12-14T09:22:04;101245.63;;;5.68;100.00
71504;BME280;59323;50.874;7.028;2023-12-14T09:24:30;101233.13;;;5.63;100.00
71504;BME280;59323;50.874;7.028;2023-12-14T09:26:55;101238.03;;;5.61;100.00
71504;BME280;59323;50.874;7.028;2023-12-14T09:29:26;101245.31;;;5.69;100.00
71504;BME280;59323;50.874;7.028;2023-12-14T09:31:55;101254.53;;;5.60;100.00
71504;BME280;59323;50.874;7.028;2023-12-14T09:34:20;101258.97;;;5.64;100.00
71504;BME280;59323;50.874;7.028;2023-12-14T09:36:48;101262.13;;;5.58;100.00
71504;BME280;59323;50.874;7.028;2023-12-14T09:39:14;101283.53;;;5.71;100.00
71504;BME280;59323;50.874;7.028;2023-12-14T09:41:52;101267.53;;;5.58;100.00
71504;BME280;59323;50.874;7.028;2023-12-14T09:44:18;101262.59;;;5.51;100.00
71504;BME280;59323;50.874;7.028;2023-12-14T09:46:53;101296.22;;;5.62;100.00
71504;BME280;59323;50.874;7.028;2023-12-14T09:49:35;101278.31;;;5.49;100.00
71504;BME280;59323;50.874;7.028;2023-12-14T09:52:04;101275.94;;;5.48;100.00
71504;BME280;59323;50.874;7.028;2023-12-14T09:54:39;101281.94;;;5.53;100.00
71504;BME280;59323;50.874;7.028;2023-12-14T09:57:08;101277.66;;;5.44;100.00
71504;BME280;59323;50.874;7.028;2023-12-14T09:59:49;101280.84;;;5.46;100.00
71504;BME280;59323;50.874;7.028;2023-12-14T10:02:19;101285.91;;;5.47;100.00
71504;BME280;59323;50.874;7.028;2023-12-14T10:05:28;101302.25;;;5.51;100.00
71504;BME280;59323;50.874;7.028;2023-12-14T10:08:08;101301.78;;;5.49;100.00
71504;BME280;59323;50.874;7.028;2023-12-14T10:10:35;101306.06;;;5.50;100.00
71504;BME280;59323;50.874;7.028;2023-12-14T10:13:06;101309.06;;;5.48;100.00
71504;BME280;59323;50.874;7.028;2023-12-14T10:15:48;101324.13;;;5.58;100.00
71504;BME280;59323;50.874;7.028;2023-12-14T10:18:27;101309.69;;;5.45;100.00
71504;BME280;59323;50.874;7.028;2023-12-14T10:21:01;101305.88;;;5.46;100.00
71504;BME280;59323;50.874;7.028;2023-12-14T10:23:27;101329.38;;;5.63;100.00
71504;BME280;59323;50.874;7.028;2023-12-14T10:25:56;101323.03;;;5.59;100.00
71504;BME280;59323;50.874;7.028;2023-12-14T10:28:22;101337.31;;;5.59;100.00
71504;BME280;59323;50.874;7.028;2023-12-14T10:30:58;101327.31;;;5.51;100.00
71504;BME280;59323;50.874;7.028;2023-12-14T10:33:40;101331.09;;;5.41;100.00
71504;BME280;59323;50.874;7.028;2023-12-14T10:36:06;101335.69;;;5.41;100.00
71504;BME280;59323;50.874;7.028;2023-12-14T10:38:43;101345.38;;;5.42;100.00
71504;BME280;59323;50.874;7.028;2023-12-14T10:41:16;101362.00;;;5.44;100.00
71504;BME280;59323;50.874;7.028;2023-12-14T10:43:50;101358.22;;;5.45;100.00
71504;BME280;59323;50.874;7.028;2023-12-14T10:46:36;101356.31;;;5.46;100.00
71504;BME280;59323;50.874;7.028;2023-12-14T10:49:05;101374.22;;;5.50;100.00
71504;BME280;59323;50.874;7.028;2023-12-14T10:51:32;101387.06;;;5.53;100.00
71504;BME280;59323;50.874;7.028;2023-12-14T10:54:01;101363.75;;;5.40;100.00
71504;BME280;59323;50.874;7.028;2023-12-14T10:56:27;101383.25;;;5.46;100.00
71504;BME280;59323;50.874;7.028;2023-12-14T10:58:55;101381.53;;;5.50;100.00
71504;BME280;59323;50.874;7.028;2023-12-14T11:01:24;101378.97;;;5.45;100.00
71504;BME280;59323;50.874;7.028;2023-12-14T11:03:53;101396.72;;;5.46;100.00
71504;BME280;59323;50.874;7.028;2023-12-14T11:08:59;101406.91;;;5.57;100.00
71504;BME280;59323;50.874;7.028;2023-12-14T11:11:28;101397.22;;;5.48;100.00
71504;BME280;59323;50.874;7.028;2023-12-14T11:14:03;101389.91;;;5.48;100.00
71504;BME280;59323;50.874;7.028;2023-12-14T11:16:32;101400.22;;;5.46;100.00
71504;BME280;59323;50.874;7.028;2023-12-14T11:19:29;101410.84;;;5.51;100.00
71504;BME280;59323;50.874;7.028;2023-12-14T11:24:41;101413.72;;;5.55;100.00
71504;BME280;59323;50.874;7.028;2023-12-14T11:27:09;101409.75;;;5.52;100.00
71504;BME280;59323;50.874;7.028;2023-12-14T11:29:38;101414.03;;;5.53;100.00
71504;BME280;59323;50.874;7.028;2023-12-14T11:32:06;101431.66;;;5.68;100.00
71504;BME280;59323;50.874;7.028;2023-12-14T11:34:32;101423.88;;;5.58;100.00
71504;BME280;59323;50.874;7.028;2023-12-14T11:36:58;101424.19;;;5.56;100.00
71504;BME280;59323;50.874;7.028;2023-12-14T11:39:23;101429.09;;;5.54;100.00
71504;BME280;59323;50.874;7.028;2023-12-14T11:42:19;101436.72;;;5.52;100.00
71504;BME280;59323;50.874;7.028;2023-12-14T11:44:44;101439.41;;;5.52;100.00
71504;BME280;59323;50.874;7.028;2023-12-14T11:47:09;101440.03;;;5.49;100.00
71504;BME280;59323;50.874;7.028;2023-12-14T11:49:35;101458.75;;;5.54;100.00
71504;BME280;59323;50.874;7.028;2023-12-14T11:52:02;101455.25;;;5.54;100.00
71504;BME280;59323;50.874;7.028;2023-12-14T11:54:30;101448.13;;;5.49;100.00
71504;BME280;59323;50.874;7.028;2023-12-14T11:56:55;101451.59;;;5.50;100.00
71504;BME280;59323;50.874;7.028;2023-12-14T11:59:20;101463.97;;;5.51;100.00
71504;BME280;59323;50.874;7.028;2023-12-14T12:01:59;101455.53;;;5.44;100.00
71504;BME280;59323;50.874;7.028;2023-12-14T12:04:26;101461.25;;;5.42;100.00
71504;BME280;59323;50.874;7.028;2023-12-14T12:07:10;101466.81;;;5.46;100.00
71504;BME280;59323;50.874;7.028;2023-12-14T12:09:43;101461.41;;;5.46;100.00
71504;BME280;59323;50.874;7.028;2023-12-14T12:12:10;101472.19;;;5.46;100.00
71504;BME280;59323;50.874;7.028;2023-12-14T12:14:36;101463.50;;;5.49;100.00
71504;BME280;59323;50.874;7.028;2023-12-14T12:17:03;101462.84;;;5.43;100.00
71504;BME280;59323;50.874;7.028;2023-12-14T12:19:40;101482.53;;;5.52;100.00
71504;BME280;59323;50.874;7.028;2023-12-14T12:22:08;101480.16;;;5.51;100.00
71504;BME280;59323;50.874;7.028;2023-12-14T12:24:34;101477.44;;;5.51;100.00
71504;BME280;59323;50.874;7.028;2023-12-14T12:26:59;101466.00;;;5.45;100.00
71504;BME280;59323;50.874;7.028;2023-12-14T12:29:25;101462.84;;;5.43;100.00
71504;BME280;59323;50.874;7.028;2023-12-14T12:31:53;101486.16;;;5.48;100.00
71504;BME280;59323;50.874;7.028;2023-12-14T12:34:18;101465.69;;;5.38;100.00
71504;BME280;59323;50.874;7.028;2023-12-14T12:36:44;101470.44;;;5.41;100.00
71504;BME280;59323;50.874;7.028;2023-12-14T12:39:09;101480.72;;;5.39;100.00
71504;BME280;59323;50.874;7.028;2023-12-14T12:41:35;101485.19;;;5.44;100.00
71504;BME280;59323;50.874;7.028;2023-12-14T12:44:04;101496.47;;;5.46;100.00
71504;BME280;59323;50.874;7.028;2023-12-14T12:46:36;101480.25;;;5.37;100.00
71504;BME280;59323;50.874;7.028;2023-12-14T12:49:03;101497.88;;;5.43;100.00
71504;BME280;59323;50.874;7.028;2023-12-14T12:51:29;101467.22;;;5.30;100.00
71504;BME280;59323;50.874;7.028;2023-12-14T12:53:56;101482.31;;;5.40;100.00
71504;BME280;59323;50.874;7.028;2023-12-14T12:56:28;101503.13;;;5.48;100.00
71504;BME280;59323;50.874;7.028;2023-12-14T12:58:54;101496.91;;;5.39;100.00
71504;BME280;59323;50.874;7.028;2023-12-14T13:01:23;101494.69;;;5.41;100.00
71504;BME280;59323;50.874;7.028;2023-12-14T13:03:57;101500.41;;;5.39;100.00
71504;BME280;59323;50.874;7.028;2023-12-14T13:06:26;101512.75;;;5.40;100.00
71504;BME280;59323;50.874;7.028;2023-12-14T13:08:52;101515.94;;;5.43;100.00
71504;BME280;59323;50.874;7.028;2023-12-14T13:11:19;101524.66;;;5.39;100.00
71504;BME280;59323;50.874;7.028;2023-12-14T13:13:44;101521.16;;;5.39;100.00
71504;BME280;59323;50.874;7.028;2023-12-14T13:16:10;101523.84;;;5.39;100.00
71504;BME280;59323;50.874;7.028;2023-12-14T13:18:39;101521.78;;;5.36;100.00
71504;BME280;59323;50.874;7.028;2023-12-14T13:21:04;101527.84;;;5.41;100.00
71504;BME280;59323;50.874;7.028;2023-12-14T13:23:30;101525.75;;;5.38;100.00
71504;BME280;59323;50.874;7.028;2023-12-14T13:25:55;101524.31;;;5.32;100.00
71504;BME280;59323;50.874;7.028;2023-12-14T13:28:21;101541.97;;;5.47;100.00
71504;BME280;59323;50.874;7.028;2023-12-14T13:30:46;101553.84;;;5.46;100.00
71504;BME280;59323;50.874;7.028;2023-12-14T13:33:11;101546.53;;;5.38;100.00
71504;BME280;59323;50.874;7.028;2023-12-14T13:35:37;101553.69;;;5.43;100.00
71504;BME280;59323;50.874;7.028;2023-12-14T13:38:03;101562.75;;;5.47;100.00
71504;BME280;59323;50.874;7.028;2023-12-14T13:40:28;101557.66;;;5.45;100.00
71504;BME280;59323;50.874;7.028;2023-12-14T13:42:54;101569.72;;;5.48;100.00
71504;BME280;59323;50.874;7.028;2023-12-14T13:45:19;101568.56;;;5.40;100.00
71504;BME280;59323;50.874;7.028;2023-12-14T13:47:45;101567.78;;;5.39;100.00
71504;BME280;59323;50.874;7.028;2023-12-14T13:50:10;101577.75;;;5.39;100.00
71504;BME280;59323;50.874;7.028;2023-12-14T13:52:36;101581.75;;;5.41;100.00
71504;BME280;59323;50.874;7.028;2023-12-14T13:55:01;101577.28;;;5.37;100.00
71504;BME280;59323;50.874;7.028;2023-12-14T13:57:26;101589.19;;;5.45;100.00
71504;BME280;59323;50.874;7.028;2023-12-14T13:59:52;101581.06;;;5.36;100.00
71504;BME280;59323;50.874;7.028;2023-12-14T14:02:18;101599.81;;;5.41;100.00
71504;BME280;59323;50.874;7.028;2023-12-14T14:04:43;101599.31;;;5.39;100.00
71504;BME280;59323;50.874;7.028;2023-12-14T14:07:08;101601.41;;;5.42;100.00
71504;BME280;59323;50.874;7.028;2023-12-14T14:09:34;101607.41;;;5.39;100.00
71504;BME280;59323;50.874;7.028;2023-12-14T14:11:59;101603.44;;;5.36;100.00
71504;BME280;59323;50.874;7.028;2023-12-14T14:14:25;101617.09;;;5.40;100.00
71504;BME280;59323;50.874;7.028;2023-12-14T14:16:50;101622.78;;;5.38;100.00
71504;BME280;59323;50.874;7.028;2023-12-14T14:19:16;101626.41;;;5.34;100.00
71504;BME280;59323;50.874;7.028;2023-12-14T14:21:41;101633.38;;;5.35;100.00
71504;BME280;59323;50.874;7.028;2023-12-14T14:24:07;101624.81;;;5.33;100.00
71504;BME280;59323;50.874;7.028;2023-12-14T14:26:32;101637.66;;;5.36;100.00
71504;BME280;59323;50.874;7.028;2023-12-14T14:28:57;101645.44;;;5.37;100.00
71504;BME280;59323;50.874;7.028;2023-12-14T14:31:25;101649.25;;;5.36;100.00
71504;BME280;59323;50.874;7.028;2023-12-14T14:33:55;101646.06;;;5.34;100.00
71504;BME280;59323;50.874;7.028;2023-12-14T14:36:20;101649.84;;;5.33;100.00
71504;BME280;59323;50.874;7.028;2023-12-14T14:38:46;101659.34;;;5.31;100.00
71504;BME280;59323;50.874;7.028;2023-12-14T14:41:15;101665.34;;;5.28;100.00
71504;BME280;59323;50.874;7.028;2023-12-14T14:43:43;101661.97;;;5.22;100.00
71504;BME280;59323;50.874;7.028;2023-12-14T14:46:09;101664.44;;;5.19;100.00
71504;BME280;59323;50.874;7.028;2023-12-14T14:48:34;101681.63;;;5.23;100.00
71504;BME280;59323;50.874;7.028;2023-12-14T14:50:59;101679.50;;;5.20;100.00
71504;BME280;59323;50.874;7.028;2023-12-14T14:53:25;101694.19;;;5.27;100.00
71504;BME280;59323;50.874;7.028;2023-12-14T14:55:51;101681.41;;;5.19;100.00
71504;BME280;59323;50.874;7.028;2023-12-14T14:58:20;101711.03;;;5.33;100.00
71504;BME280;59323;50.874;7.028;2023-12-14T15:00:46;101693.22;;;5.23;100.00
71504;BME280;59323;50.874;7.028;2023-12-14T15:03:15;101706.88;;;5.27;100.00
71504;BME280;59323;50.874;7.028;2023-12-14T15:05:48;101701.59;;;5.22;100.00
71504;BME280;59323;50.874;7.028;2023-12-14T15:08:13;101725.31;;;5.33;100.00
71504;BME280;59323;50.874;7.028;2023-12-14T15:10:39;101705.97;;;5.18;100.00
71504;BME280;59323;50.874;7.028;2023-12-14T15:13:07;101725.91;;;5.30;100.00
71504;BME280;59323;50.874;7.028;2023-12-14T15:15:32;101726.03;;;5.25;100.00
71504;BME280;59323;50.874;7.028;2023-12-14T15:17:58;101726.63;;;5.22;100.00
71504;BME280;59323;50.874;7.028;2023-12-14T15:20:24;101741.72;;;5.23;100.00
71504;BME280;59323;50.874;7.028;2023-12-14T15:22:52;101734.00;;;5.17;100.00
71504;BME280;59323;50.874;7.028;2023-12-14T15:25:17;101742.59;;;5.19;100.00
71504;BME280;59323;50.874;7.028;2023-12-14T15:27:43;101733.31;;;5.11;100.00
71504;BME280;59323;50.874;7.028;2023-12-14T15:30:09;101740.72;;;5.05;100.00
71504;BME280;59323;50.874;7.028;2023-12-14T15:32:35;101740.41;;;5.07;100.00
71504;BME280;59323;50.874;7.028;2023-12-14T15:35:01;101763.44;;;5.13;100.00
71504;BME280;59323;50.874;7.028;2023-12-14T15:37:27;101747.31;;;4.99;100.00
71504;BME280;59323;50.874;7.028;2023-12-14T15:39:52;101751.09;;;4.98;100.00
71504;BME280;59323;50.874;7.028;2023-12-14T15:42:19;101761.97;;;5.07;100.00
71504;BME280;59323;50.874;7.028;2023-12-14T15:44:44;101760.97;;;5.03;100.00
71504;BME280;59323;50.874;7.028;2023-12-14T15:47:11;101774.94;;;5.05;100.00
71504;BME280;59323;50.874;7.028;2023-12-14T15:49:41;101774.06;;;4.96;100.00
71504;BME280;59323;50.874;7.028;2023-12-14T15:52:06;101777.53;;;4.96;100.00
71504;BME280;59323;50.874;7.028;2023-12-14T15:54:32;101796.59;;;5.00;100.00
71504;BME280;59323;50.874;7.028;2023-12-14T15:56:57;101786.53;;;4.92;100.00
71504;BME280;59323;50.874;7.028;2023-12-14T15:59:24;101812.75;;;5.00;100.00
71504;BME280;59323;50.874;7.028;2023-12-14T16:01:52;101800.19;;;4.82;100.00
71504;BME280;59323;50.874;7.028;2023-12-14T16:04:17;101802.78;;;4.87;100.00
71504;BME280;59323;50.874;7.028;2023-12-14T16:06:49;101811.06;;;4.90;100.00
71504;BME280;59323;50.874;7.028;2023-12-14T16:09:14;101816.94;;;4.92;100.00
71504;BME280;59323;50.874;7.028;2023-12-14T16:11:41;101828.81;;;4.91;100.00
71504;BME280;59323;50.874;7.028;2023-12-14T16:14:07;101827.31;;;4.85;100.00
71504;BME280;59323;50.874;7.028;2023-12-14T16:16:32;101837.00;;;4.86;100.00
71504;BME280;59323;50.874;7.028;2023-12-14T16:18:58;101833.78;;;4.84;100.00
71504;BME280;59323;50.874;7.028;2023-12-14T16:21:26;101841.78;;;4.89;100.00
71504;BME280;59323;50.874;7.028;2023-12-14T16:23:51;101837.09;;;4.81;100.00
71504;BME280;59323;50.874;7.028;2023-12-14T16:26:17;101841.88;;;4.84;100.00
71504;BME280;59323;50.874;7.028;2023-12-14T16:28:42;101839.28;;;4.79;100.00
71504;BME280;59323;50.874;7.028;2023-12-14T16:31:08;101845.16;;;4.81;100.00
71504;BME280;59323;50.874;7.028;2023-12-14T16:33:37;101850.66;;;4.76;100.00
71504;BME280;59323;50.874;7.028;2023-12-14T16:36:09;101851.16;;;4.78;100.00
71504;BME280;59323;50.874;7.028;2023-12-14T16:38:34;101856.03;;;4.76;100.00
71504;BME280;59323;50.874;7.028;2023-12-14T16:41:03;101853.13;;;4.72;100.00
71504;BME280;59323;50.874;7.028;2023-12-14T16:43:28;101860.91;;;4.74;100.00
71504;BME280;59323;50.874;7.028;2023-12-14T16:45:55;101866.59;;;4.72;100.00
71504;BME280;59323;50.874;7.028;2023-12-14T16:48:24;101872.56;;;4.69;100.00
71504;BME280;59323;50.874;7.028;2023-12-14T16:50:49;101874.56;;;4.64;100.00
71504;BME280;59323;50.874;7.028;2023-12-14T16:53:22;101882.63;;;4.64;100.00
71504;BME280;59323;50.874;7.028;2023-12-14T16:55:49;101890.63;;;4.69;100.00
71504;BME280;59323;50.874;7.028;2023-12-14T16:58:16;101892.59;;;4.63;100.00
71504;BME280;59323;50.874;7.028;2023-12-14T17:00:41;101903.38;;;4.63;100.00
71504;BME280;59323;50.874;7.028;2023-12-14T17:03:06;101910.06;;;4.66;100.00
71504;BME280;59323;50.874;7.028;2023-12-14T17:05:32;101914.84;;;4.69;100.00
71504;BME280;59323;50.874;7.028;2023-12-14T17:07:57;101911.16;;;4.65;100.00
71504;BME280;59323;50.874;7.028;2023-12-14T17:10:23;101909.47;;;4.69;100.00
71504;BME280;59323;50.874;7.028;2023-12-14T17:12:48;101921.63;;;4.66;100.00
71504;BME280;59323;50.874;7.028;2023-12-14T17:15:14;101923.00;;;4.64;100.00
71504;BME280;59323;50.874;7.028;2023-12-14T17:17:39;101932.69;;;4.65;100.00
71504;BME280;59323;50.874;7.028;2023-12-14T17:20:06;101934.06;;;4.62;100.00
71504;BME280;59323;50.874;7.028;2023-12-14T17:22:32;101934.88;;;4.63;100.00
71504;BME280;59323;50.874;7.028;2023-12-14T17:25:04;101942.88;;;4.68;100.00
71504;BME280;59323;50.874;7.028;2023-12-14T17:27:33;101937.56;;;4.63;100.00
71504;BME280;59323;50.874;7.028;2023-12-14T17:29:59;101943.66;;;4.68;100.00